createdAt,value
2022-10-14T00:00:13.365Z,57.94
2022-10-14T00:02:41.467Z,58.45
2022-10-14T00:05:09.574Z,57.51
2022-10-14T00:07:36.897Z,57.38
2022-10-14T00:10:07.085Z,56.98
2022-10-14T00:12:34.037Z,57.84
2022-10-14T00:15:00.828Z,57.41
2022-10-14T00:17:27.781Z,58.16
2022-10-14T00:19:54.559Z,57.99
2022-10-14T00:22:21.232Z,58.25
2022-10-14T00:24:48.136Z,57.68
2022-10-14T00:27:14.821Z,58.03
2022-10-14T00:29:41.571Z,58.31
2022-10-14T00:32:08.566Z,57.94
2022-10-14T00:34:35.588Z,57.67
2022-10-14T00:37:04.149Z,58.05
2022-10-14T00:39:31.271Z,58.10
2022-10-14T00:41:58.020Z,58.12
2022-10-14T00:44:24.679Z,58.30
2022-10-14T00:46:51.792Z,57.23
2022-10-14T00:49:22.325Z,58.05
2022-10-14T00:51:51.708Z,57.58
2022-10-14T00:54:18.933Z,57.63
2022-10-14T00:56:45.777Z,57.71
2022-10-14T00:59:12.453Z,57.94
2022-10-14T01:01:39.524Z,57.65
2022-10-14T01:04:06.218Z,58.39
2022-10-14T01:06:35.753Z,58.96
2022-10-14T01:09:04.530Z,58.47
2022-10-14T01:11:42.602Z,58.91
2022-10-14T01:14:24.978Z,57.57
2022-10-14T01:17:07.434Z,58.78
2022-10-14T01:19:41.604Z,58.65
2022-10-14T01:22:12.345Z,58.01
2022-10-14T01:24:39.658Z,58.03
2022-10-14T01:27:09.433Z,58.17
2022-10-14T01:29:51.795Z,59.23
2022-10-14T01:32:37.699Z,59.09
2022-10-14T01:35:23.824Z,58.89
2022-10-14T01:37:56.028Z,58.38
2022-10-14T01:40:26.269Z,58.14
2022-10-14T01:42:55.568Z,59.60
2022-10-14T01:45:22.672Z,58.94
2022-10-14T01:47:49.648Z,58.11
2022-10-14T01:50:17.471Z,58.42
2022-10-14T01:52:46.152Z,58.17
2022-10-14T01:55:14.372Z,59.29
2022-10-14T01:57:41.457Z,58.18
2022-10-14T02:00:09.137Z,58.26
2022-10-14T02:02:40.471Z,59.70
2022-10-14T02:05:28.060Z,58.26
2022-10-14T02:07:57.599Z,58.84
2022-10-14T02:10:28.112Z,57.95
2022-10-14T02:13:14.447Z,58.85
2022-10-14T02:16:00.094Z,59.17
2022-10-14T02:18:41.576Z,58.22
2022-10-14T02:21:17.142Z,58.48
2022-10-14T02:24:08.281Z,58.49
2022-10-14T02:26:35.413Z,57.57
2022-10-14T02:29:02.400Z,57.84
2022-10-14T02:31:29.240Z,58.42
2022-10-14T02:33:56.934Z,58.73
2022-10-14T02:36:23.657Z,59.98
2022-10-14T02:38:50.485Z,59.54
2022-10-14T02:41:18.410Z,59.79
2022-10-14T02:43:45.503Z,58.88
2022-10-14T02:46:12.684Z,59.60
2022-10-14T02:48:39.868Z,59.55
2022-10-14T02:51:06.632Z,59.29
2022-10-14T02:53:33.314Z,60.47
2022-10-14T02:56:00.604Z,59.67
2022-10-14T02:58:27.322Z,58.79
2022-10-14T03:00:56.074Z,59.63
2022-10-14T03:03:25.691Z,59.90
2022-10-14T03:05:52.559Z,58.84
2022-10-14T03:08:20.188Z,59.78
2022-10-14T03:10:48.016Z,59.49
2022-10-14T03:13:14.838Z,59.26
2022-10-14T03:15:42.057Z,59.07
2022-10-14T03:18:09.333Z,58.93
2022-10-14T03:20:37.321Z,59.63
2022-10-14T03:23:04.739Z,58.99
2022-10-14T03:25:33.496Z,59.23
2022-10-14T03:28:01.819Z,60.12
2022-10-14T03:30:31.411Z,60.34
2022-10-14T03:32:58.624Z,60.28
2022-10-14T03:35:26.495Z,60.66
2022-10-14T03:37:54.892Z,61.31
2022-10-14T03:40:24.379Z,61.25
2022-10-14T03:42:51.180Z,60.98
2022-10-14T03:45:20.652Z,61.41
2022-10-14T03:47:48.171Z,61.82
2022-10-14T03:50:14.911Z,61.93
2022-10-14T03:52:46.629Z,60.73
2022-10-14T03:55:15.555Z,60.31
2022-10-14T03:57:42.736Z,60.70
2022-10-14T04:00:10.412Z,60.12
2022-10-14T04:02:40.253Z,60.15
2022-10-14T04:05:09.165Z,60.11
2022-10-14T04:07:36.199Z,59.75
2022-10-14T04:10:03.403Z,59.54
2022-10-14T04:12:31.899Z,59.53
2022-10-14T04:14:58.932Z,59.25
2022-10-14T04:17:25.831Z,58.90
2022-10-14T04:19:53.006Z,59.48
2022-10-14T04:22:20.961Z,58.85
2022-10-14T04:24:48.233Z,59.51
2022-10-14T04:27:15.180Z,58.41
2022-10-14T04:29:42.542Z,59.01
2022-10-14T04:32:10.318Z,58.34
2022-10-14T04:34:37.534Z,58.68
2022-10-14T04:37:04.610Z,58.82
2022-10-14T04:39:34.193Z,58.81
2022-10-14T04:42:02.234Z,58.72
2022-10-14T04:44:29.108Z,58.18
2022-10-14T04:46:56.027Z,58.50
2022-10-14T04:49:23.408Z,58.26
2022-10-14T04:51:50.903Z,58.02
2022-10-14T04:54:18.154Z,58.68
2022-10-14T04:56:45.494Z,58.63
2022-10-14T04:59:13.694Z,58.56
2022-10-14T05:01:42.317Z,57.98
2022-10-14T05:04:09.817Z,58.23
2022-10-14T05:06:38.168Z,58.19
2022-10-14T05:09:05.610Z,58.81
2022-10-14T05:11:33.740Z,58.62
2022-10-14T05:14:00.621Z,59.59
2022-10-14T05:16:28.237Z,59.22
2022-10-14T05:18:55.765Z,58.85
2022-10-14T05:21:22.746Z,58.69
2022-10-14T05:23:50.794Z,59.09
2022-10-14T05:26:18.180Z,58.86
2022-10-14T05:28:45.079Z,58.74
2022-10-14T05:31:11.935Z,58.90
2022-10-14T05:33:39.292Z,59.68
2022-10-14T05:36:06.403Z,59.36
2022-10-14T05:38:34.198Z,59.43
2022-10-14T05:41:03.070Z,59.48
2022-10-14T05:43:34.099Z,59.85
2022-10-14T05:46:01.447Z,59.34
2022-10-14T05:48:28.907Z,58.92
2022-10-14T05:51:01.366Z,60.00
2022-10-14T05:53:29.176Z,59.74
2022-10-14T05:56:03.955Z,59.91
2022-10-14T05:58:31.005Z,60.12
2022-10-14T06:01:01.543Z,59.92
2022-10-14T06:03:28.955Z,60.73
2022-10-14T06:05:56.332Z,61.09
2022-10-14T06:08:23.244Z,61.85
2022-10-14T06:10:50.359Z,61.55
2022-10-14T06:13:17.197Z,60.86
2022-10-14T06:15:44.723Z,61.39
2022-10-14T06:18:11.655Z,61.06
2022-10-14T06:20:38.383Z,62.02
2022-10-14T06:23:05.548Z,62.77
2022-10-14T06:25:33.067Z,61.72
2022-10-14T06:28:03.479Z,61.39
2022-10-14T06:30:30.137Z,61.43
2022-10-14T06:32:57.368Z,62.82
2022-10-14T06:35:24.197Z,62.78
2022-10-14T06:37:50.915Z,62.65
2022-10-14T06:40:18.020Z,62.05
2022-10-14T06:42:44.783Z,61.93
2022-10-14T06:45:11.687Z,61.72
2022-10-14T06:47:38.634Z,61.49
2022-10-14T06:50:05.487Z,60.82
2022-10-14T06:52:32.211Z,61.18
2022-10-14T06:54:59.242Z,60.46
2022-10-14T06:57:25.894Z,60.62
2022-10-14T06:59:52.563Z,60.56
2022-10-14T07:02:19.846Z,59.91
2022-10-14T07:04:46.855Z,59.78
2022-10-14T07:07:16.400Z,59.38
2022-10-14T07:09:43.367Z,58.81
2022-10-14T07:12:10.086Z,57.87
2022-10-14T07:14:36.775Z,56.99
2022-10-14T07:17:08.221Z,56.60
2022-10-14T07:19:35.068Z,56.09
2022-10-14T07:22:01.816Z,55.88
2022-10-14T07:24:29.045Z,55.17
2022-10-14T07:26:56.060Z,54.53
2022-10-14T07:29:22.895Z,54.00
2022-10-14T07:31:49.846Z,54.42
2022-10-14T07:34:16.583Z,53.84
2022-10-14T07:36:43.262Z,53.59
2022-10-14T07:39:10.245Z,53.13
2022-10-14T07:41:36.950Z,52.90
2022-10-14T07:44:06.164Z,52.50
2022-10-14T07:46:33.840Z,52.08
2022-10-14T07:49:17.040Z,51.09
2022-10-14T07:51:44.419Z,51.43
2022-10-14T07:54:18.551Z,51.10
2022-10-14T07:56:46.048Z,51.29
2022-10-14T07:59:13.191Z,50.08
2022-10-14T08:01:40.050Z,49.22
2022-10-14T08:04:07.267Z,50.39
2022-10-14T08:06:34.011Z,49.85
2022-10-14T08:09:00.706Z,50.33
2022-10-14T08:11:28.157Z,50.46
2022-10-14T08:13:55.199Z,49.55
2022-10-14T08:16:23.403Z,48.89
2022-10-14T08:18:51.017Z,49.19
2022-10-14T08:21:18.688Z,47.96
2022-10-14T08:23:45.532Z,47.88
2022-10-14T08:26:19.918Z,47.36
2022-10-14T08:28:47.096Z,47.59
2022-10-14T08:31:14.186Z,47.48
2022-10-14T08:33:41.064Z,48.57
2022-10-14T08:36:07.996Z,47.13
2022-10-14T08:38:35.232Z,47.80
2022-10-14T08:41:08.314Z,47.90
2022-10-14T08:43:54.045Z,47.97
2022-10-14T08:46:23.619Z,46.58
2022-10-14T08:48:51.104Z,47.60
2022-10-14T08:51:18.064Z,46.19
2022-10-14T08:53:46.841Z,46.08
2022-10-14T08:56:14.291Z,45.48
2022-10-14T08:58:46.031Z,45.44
2022-10-14T09:01:21.352Z,45.72
2022-10-14T09:03:48.589Z,46.82
2022-10-14T09:06:17.921Z,45.71
2022-10-14T09:08:46.231Z,47.11
2022-10-14T09:11:18.749Z,45.16
2022-10-14T09:13:46.744Z,47.25
2022-10-14T09:16:18.045Z,45.35
2022-10-14T09:18:54.780Z,44.64
2022-10-14T09:21:34.079Z,44.54
2022-10-14T09:24:16.761Z,44.44
2022-10-14T09:26:47.692Z,44.82
2022-10-14T09:29:25.805Z,45.68
2022-10-14T09:31:53.244Z,45.41
2022-10-14T09:34:21.208Z,46.41
2022-10-14T09:36:48.016Z,45.74
2022-10-14T09:39:14.778Z,47.05
2022-10-14T09:41:41.737Z,44.41
2022-10-14T09:44:25.493Z,45.57
2022-10-14T09:46:53.636Z,45.84
2022-10-14T09:49:23.481Z,44.87
2022-10-14T09:51:50.164Z,44.18
2022-10-14T09:54:24.993Z,45.53
2022-10-14T09:56:58.024Z,45.59
2022-10-14T09:59:25.009Z,44.28
2022-10-14T10:01:53.309Z,42.97
2022-10-14T10:04:29.402Z,44.24
2022-10-14T10:06:56.187Z,43.95
2022-10-14T10:09:23.194Z,44.09
2022-10-14T10:11:49.985Z,45.30
2022-10-14T10:14:17.334Z,44.14
2022-10-14T10:16:44.549Z,43.82
2022-10-14T10:19:37.599Z,44.53
2022-10-14T10:22:26.759Z,44.58
2022-10-14T10:25:03.487Z,43.14
2022-10-14T10:27:36.762Z,43.77
2022-10-14T10:30:12.606Z,43.76
2022-10-14T10:32:46.984Z,44.48
2022-10-14T10:35:14.183Z,45.46
2022-10-14T10:37:47.029Z,45.93
2022-10-14T10:40:16.587Z,43.77
2022-10-14T10:43:02.644Z,44.43
2022-10-14T10:45:36.332Z,42.79
2022-10-14T10:48:03.744Z,42.82
2022-10-14T10:50:39.783Z,44.25
2022-10-14T10:53:09.523Z,42.43
2022-10-14T10:55:55.096Z,44.99
2022-10-14T10:58:22.087Z,43.76
2022-10-14T11:00:54.835Z,43.15
2022-10-14T11:03:39.913Z,44.62
2022-10-14T11:06:06.856Z,43.15
2022-10-14T11:09:07.731Z,42.80
2022-10-14T11:11:59.669Z,44.84
2022-10-14T11:14:32.500Z,43.13
2022-10-14T11:17:10.946Z,43.52
2022-10-14T11:19:54.137Z,41.73
2022-10-14T11:22:28.788Z,42.14
2022-10-14T11:24:58.984Z,42.72
2022-10-14T11:27:44.151Z,43.42
2022-10-14T11:30:43.273Z,41.76
2022-10-14T11:33:22.349Z,42.21
2022-10-14T11:35:55.692Z,44.35
2022-10-14T11:38:25.877Z,42.67
2022-10-14T11:40:58.924Z,41.40
2022-10-14T11:43:35.333Z,42.39
2022-10-14T11:46:07.945Z,42.93
2022-10-14T11:48:34.899Z,41.42
2022-10-14T11:51:22.514Z,41.98
2022-10-14T11:53:55.764Z,42.40
2022-10-14T11:56:29.680Z,41.48
2022-10-14T11:58:58.530Z,43.33
2022-10-14T12:01:25.498Z,43.50
2022-10-14T12:04:01.094Z,43.16
2022-10-14T12:06:27.747Z,42.41
2022-10-14T12:09:02.905Z,42.35
2022-10-14T12:11:35.842Z,42.05
2022-10-14T12:14:04.589Z,42.35
2022-10-14T12:16:31.332Z,41.88
2022-10-14T12:18:58.281Z,42.09
2022-10-14T12:21:30.799Z,42.99
2022-10-14T12:23:59.384Z,43.43
2022-10-14T12:26:26.375Z,43.79
2022-10-14T12:28:54.102Z,43.80
2022-10-14T12:31:38.407Z,43.93
2022-10-14T12:34:11.403Z,42.97
2022-10-14T12:36:38.594Z,43.58
2022-10-14T12:39:17.942Z,45.88
2022-10-14T12:41:55.000Z,44.22
2022-10-14T12:44:28.115Z,44.23
2022-10-14T12:46:55.908Z,44.61
2022-10-14T12:49:29.872Z,44.08
2022-10-14T12:52:14.622Z,42.85
2022-10-14T12:54:48.426Z,43.46
2022-10-14T12:57:24.370Z,45.74
2022-10-14T12:59:52.212Z,42.59
2022-10-14T13:02:33.719Z,42.36
2022-10-14T13:05:24.267Z,40.87
2022-10-14T13:08:12.505Z,42.37
2022-10-14T13:10:43.461Z,42.22
2022-10-14T13:13:38.253Z,43.80
2022-10-14T13:16:05.786Z,42.85
2022-10-14T13:18:36.621Z,42.23
2022-10-14T13:21:04.491Z,42.74
2022-10-14T13:23:31.609Z,44.54
2022-10-14T13:26:06.444Z,44.63
2022-10-14T13:28:38.782Z,45.42
2022-10-14T13:31:08.160Z,44.65
2022-10-14T13:33:38.129Z,45.90
2022-10-14T13:36:05.858Z,44.20
2022-10-14T13:38:33.467Z,43.63
2022-10-14T13:41:00.589Z,44.32
2022-10-14T13:43:40.144Z,44.52
2022-10-14T13:46:15.241Z,44.20
2022-10-14T13:48:50.959Z,44.18
2022-10-14T13:51:36.529Z,44.53
2022-10-14T13:54:22.131Z,45.24
2022-10-14T13:57:42.641Z,44.21
2022-10-14T14:00:39.626Z,44.56
2022-10-14T14:02:44.145Z,45.02
2022-10-14T14:05:15.243Z,45.02
2022-10-14T14:10:29.632Z,44.61
2022-10-14T14:12:56.389Z,45.26
2022-10-14T14:15:24.021Z,45.16
2022-10-14T14:17:51.041Z,44.74
2022-10-14T14:20:23.833Z,45.00
2022-10-14T14:22:53.214Z,44.42
2022-10-14T14:25:34.121Z,44.91
2022-10-14T14:28:06.052Z,45.43
2022-10-14T14:30:34.099Z,44.48
2022-10-14T14:33:02.193Z,45.52
2022-10-14T14:35:29.784Z,45.11
2022-10-14T14:37:56.871Z,46.43
2022-10-14T14:40:24.735Z,45.89
2022-10-14T14:43:02.537Z,45.48
2022-10-14T14:45:37.675Z,45.46
2022-10-14T14:48:05.302Z,45.31
2022-10-14T14:50:33.216Z,46.46
2022-10-14T14:53:04.309Z,46.21
2022-10-14T14:55:34.685Z,46.08
2022-10-14T14:58:01.933Z,46.76
2022-10-14T15:00:30.641Z,47.01
2022-10-14T15:02:58.929Z,47.08
2022-10-14T15:05:25.828Z,47.26
2022-10-14T15:07:52.496Z,47.05
2022-10-14T15:10:20.893Z,47.14
2022-10-14T15:12:52.190Z,47.57
2022-10-14T15:15:34.319Z,48.19
2022-10-14T15:18:11.657Z,48.77
2022-10-14T15:20:38.386Z,49.27
2022-10-14T15:23:28.968Z,49.15
2022-10-14T15:25:58.603Z,50.06
2022-10-14T15:28:29.475Z,50.37
2022-10-14T15:31:03.083Z,50.79
2022-10-14T15:33:32.686Z,51.41
2022-10-14T15:36:00.261Z,51.07
2022-10-14T15:38:27.603Z,50.99
2022-10-14T15:40:57.474Z,50.50
2022-10-14T15:43:25.069Z,50.83
2022-10-14T15:46:13.902Z,51.25
2022-10-14T15:48:41.218Z,51.49
2022-10-14T15:51:10.026Z,52.41
2022-10-14T15:53:36.701Z,52.92
2022-10-14T15:56:04.640Z,52.71
2022-10-14T15:58:33.750Z,52.86
2022-10-14T16:01:03.749Z,53.37
2022-10-14T16:03:34.788Z,53.84
2022-10-14T16:06:07.600Z,53.71
2022-10-14T16:08:35.684Z,53.70
2022-10-14T16:11:06.351Z,54.66
2022-10-14T16:13:32.993Z,54.51
2022-10-14T16:16:00.575Z,54.18
2022-10-14T16:18:27.335Z,53.88
2022-10-14T16:21:02.049Z,54.55
2022-10-14T16:23:33.366Z,54.06
2022-10-14T16:26:00.875Z,54.31
2022-10-14T16:28:28.089Z,55.04
2022-10-14T16:30:55.646Z,55.04
2022-10-14T16:33:23.240Z,55.50
2022-10-14T16:35:51.497Z,55.24
2022-10-14T16:38:18.965Z,55.71
2022-10-14T16:40:45.699Z,55.32
2022-10-14T16:43:12.953Z,55.80
2022-10-14T16:45:40.423Z,55.58
2022-10-14T16:48:08.003Z,55.40
2022-10-14T16:50:34.826Z,55.70
2022-10-14T16:53:20.407Z,56.03
2022-10-14T16:55:47.115Z,55.36
2022-10-14T16:58:14.061Z,55.49
2022-10-14T17:00:40.764Z,56.40
2022-10-14T17:03:10.703Z,55.89
2022-10-14T17:05:38.125Z,55.55
2022-10-14T17:08:05.952Z,56.02
2022-10-14T17:10:34.662Z,55.94
2022-10-14T17:13:02.993Z,56.40
2022-10-14T17:15:30.242Z,56.38
2022-10-14T17:17:56.967Z,56.32
2022-10-14T17:20:24.241Z,56.76
2022-10-14T17:22:51.168Z,56.42
2022-10-14T17:25:17.969Z,56.45
2022-10-14T17:27:44.924Z,56.33
2022-10-14T17:30:11.990Z,56.63
2022-10-14T17:32:38.722Z,55.57
2022-10-14T17:35:06.980Z,55.99
2022-10-14T17:37:34.300Z,56.40
2022-10-14T17:40:00.982Z,56.41
2022-10-14T17:42:28.240Z,56.22
2022-10-14T17:44:55.490Z,56.48
2022-10-14T17:47:23.849Z,56.99
2022-10-14T17:49:54.029Z,56.98
2022-10-14T17:52:21.568Z,56.87
2022-10-14T17:54:48.818Z,56.77
2022-10-14T17:57:16.025Z,56.69
2022-10-14T17:59:42.763Z,56.89
2022-10-14T18:02:26.095Z,57.21
2022-10-14T18:04:53.061Z,56.73
2022-10-14T18:07:22.913Z,56.63
2022-10-14T18:09:51.209Z,57.17
2022-10-14T18:12:18.282Z,56.53
2022-10-14T18:14:44.947Z,56.45
2022-10-14T18:17:12.548Z,56.59
2022-10-14T18:19:41.054Z,57.09
2022-10-14T18:22:08.062Z,57.25
2022-10-14T18:24:38.661Z,57.03
2022-10-14T18:27:06.065Z,57.20
2022-10-14T18:29:32.824Z,57.11
2022-10-14T18:31:59.620Z,57.41
2022-10-14T18:34:27.676Z,57.35
2022-10-14T18:36:54.419Z,57.23
2022-10-14T18:39:21.415Z,57.69
2022-10-14T18:41:48.832Z,57.46
2022-10-14T18:44:15.848Z,57.33
2022-10-14T18:46:42.639Z,57.61
2022-10-14T18:49:11.331Z,57.31
2022-10-14T18:51:39.166Z,56.97
2022-10-14T18:54:08.422Z,57.67
2022-10-14T18:56:38.514Z,57.90
2022-10-14T18:59:07.323Z,57.47
2022-10-14T19:01:37.318Z,58.06
2022-10-14T19:04:06.072Z,57.63
2022-10-14T19:06:33.465Z,57.80
2022-10-14T19:09:02.036Z,57.65
2022-10-14T19:11:29.678Z,57.52
2022-10-14T19:13:57.549Z,57.12
2022-10-14T19:16:36.212Z,57.42
2022-10-14T19:19:08.517Z,57.56
2022-10-14T19:21:35.410Z,57.21
2022-10-14T19:24:03.177Z,57.40
2022-10-14T19:26:34.516Z,57.75
2022-10-14T19:29:02.915Z,57.95
2022-10-14T19:31:32.722Z,57.76
2022-10-14T19:34:00.801Z,58.13
2022-10-14T19:36:28.641Z,58.22
2022-10-14T19:39:00.342Z,57.74
2022-10-14T19:41:31.677Z,57.61
2022-10-14T19:43:59.223Z,57.59
2022-10-14T19:46:30.407Z,57.00
2022-10-14T19:49:02.586Z,57.25
2022-10-14T19:51:30.778Z,57.00
2022-10-14T19:53:57.961Z,57.46
2022-10-14T19:56:25.444Z,57.65
2022-10-14T19:58:53.833Z,57.67
2022-10-14T20:01:21.268Z,57.65
2022-10-14T20:03:48.655Z,56.76
2022-10-14T20:06:15.464Z,57.69
2022-10-14T20:08:42.994Z,57.96
2022-10-14T20:11:10.750Z,57.99
2022-10-14T20:13:37.883Z,57.74
2022-10-14T20:16:05.280Z,57.41
2022-10-14T20:18:32.351Z,57.89
2022-10-14T20:21:00.393Z,58.05
2022-10-14T20:23:27.269Z,57.99
2022-10-14T20:26:00.976Z,57.90
2022-10-14T20:28:27.826Z,58.38
2022-10-14T20:30:55.187Z,57.88
2022-10-14T20:33:22.218Z,57.83
2022-10-14T20:35:49.045Z,57.67
2022-10-14T20:38:15.986Z,57.33
2022-10-14T20:40:42.749Z,58.03
2022-10-14T20:43:09.472Z,57.35
2022-10-14T20:45:37.999Z,57.41
2022-10-14T20:48:04.808Z,57.73
2022-10-14T20:50:31.471Z,57.12
2022-10-14T20:52:59.650Z,57.88
2022-10-14T20:55:26.397Z,57.25
2022-10-14T20:57:53.098Z,57.74
2022-10-14T21:00:20.063Z,57.74
2022-10-14T21:02:46.875Z,57.37
2022-10-14T21:05:13.575Z,57.49
2022-10-14T21:07:40.488Z,58.74
2022-10-14T21:10:07.877Z,58.40
2022-10-14T21:12:34.625Z,58.38
2022-10-14T21:15:01.642Z,58.03
2022-10-14T21:17:28.396Z,58.49
2022-10-14T21:19:55.088Z,58.26
2022-10-14T21:22:25.005Z,60.17
2022-10-14T21:24:51.970Z,59.09
2022-10-14T21:27:18.721Z,59.34
2022-10-14T21:29:47.998Z,58.71
2022-10-14T21:32:14.732Z,59.01
2022-10-14T21:34:41.395Z,58.62
2022-10-14T21:37:08.350Z,59.44
2022-10-14T21:39:36.040Z,58.90
2022-10-14T21:42:04.074Z,58.68
2022-10-14T21:44:31.016Z,58.88
2022-10-14T21:46:57.774Z,58.58
2022-10-14T21:49:24.561Z,58.36
2022-10-14T21:51:51.493Z,58.30
2022-10-14T21:54:18.184Z,58.92
2022-10-14T21:56:44.904Z,59.24
2022-10-14T21:59:12.058Z,59.08
2022-10-14T22:01:39.125Z,59.00
2022-10-14T22:04:06.608Z,59.08
2022-10-14T22:06:33.988Z,58.55
2022-10-14T22:09:01.407Z,58.93
2022-10-14T22:11:33.424Z,59.07
2022-10-14T22:14:00.745Z,58.46
2022-10-14T22:16:29.204Z,58.33
2022-10-14T22:18:57.769Z,57.99
2022-10-14T22:21:25.150Z,58.31
2022-10-14T22:23:54.500Z,58.37
2022-10-14T22:26:23.289Z,57.63
2022-10-14T22:28:50.629Z,58.31
2022-10-14T22:31:18.633Z,58.07
2022-10-14T22:33:45.918Z,58.21
2022-10-14T22:36:12.724Z,57.75
2022-10-14T22:38:39.994Z,58.10
2022-10-14T22:41:07.414Z,58.55
2022-10-14T22:43:34.612Z,58.64
2022-10-14T22:46:01.407Z,58.74
2022-10-14T22:48:29.114Z,58.99
2022-10-14T22:51:03.100Z,58.98
2022-10-14T22:53:30.091Z,59.56
2022-10-14T22:55:57.022Z,59.67
2022-10-14T22:58:23.707Z,59.04
2022-10-14T23:00:51.048Z,59.89
2022-10-14T23:03:17.726Z,58.89
2022-10-14T23:05:44.401Z,58.24
2022-10-14T23:08:12.363Z,58.65
2022-10-14T23:10:39.235Z,58.39
2022-10-14T23:13:06.229Z,58.05
2022-10-14T23:15:33.582Z,58.13
2022-10-14T23:18:00.292Z,58.09
2022-10-14T23:20:27.063Z,57.45
2022-10-14T23:22:53.995Z,57.70
2022-10-14T23:25:20.800Z,57.72
2022-10-14T23:27:47.560Z,58.07
2022-10-14T23:30:14.972Z,58.68
2022-10-14T23:32:41.666Z,57.76
2022-10-14T23:35:08.639Z,58.57
2022-10-14T23:37:35.734Z,57.49
2022-10-14T23:40:02.578Z,57.67
2022-10-14T23:42:29.342Z,57.70
2022-10-14T23:44:56.351Z,58.00
2022-10-14T23:47:23.175Z,57.88
2022-10-14T23:49:50.137Z,58.01
2022-10-14T23:52:17.038Z,57.51
2022-10-14T23:54:43.734Z,58.08
2022-10-14T23:57:10.483Z,57.40
2022-10-14T23:59:37.397Z,57.30
